This is the latest recevied weather packets stored in our database for station/object SQ2CET-13. If no packets are shown the sender has not sent any weather packets the latest 10 day(s).
| Time | Temp. | Humidity | Pressure | Rain* | Wind** | Luminosity | Snow |
|---|---|---|---|---|---|---|---|
| 1777721460 | 25° C | 26% | 1022.5 hPa | 0 mm | - | 569 W/m² | - |
| 1777717256 | 24.44° C | 27% | 1023.3 hPa | 0 mm | - | 659 W/m² | - |
| 1777710638 | 20° C | 35% | 1024.3 hPa | 0 mm | - | 682 W/m² | - |
| 1777708828 | 19.44° C | 37% | 1024.6 hPa | 0 mm | - | 617 W/m² | - |
| 1777706460 | 17.22° C | 43% | 1024.7 hPa | 0 mm | - | 547 W/m² | - |
| 1777704028 | 15.56° C | 50% | 1024.8 hPa | 0 mm | - | 383 W/m² | - |
| 1777701660 | 13.33° C | 56% | 1025 hPa | 0 mm | - | 264 W/m² | - |
| 1777697435 | 10.56° C | 61% | 1024.9 hPa | 0 mm | - | 117 W/m² | - |
| 1777694447 | 8.89° C | 65% | 1024.8 hPa | 0 mm | - | 27 W/m² | - |
| 1777692059 | 7.78° C | 68% | 1024.9 hPa | 0 mm | - | 5 W/m² | - |
| 1777684847 | 8.33° C | 64% | 1025.2 hPa | 0 mm | - | 0 W/m² | - |
| 1777683675 | 8.89° C | 64% | 1025.3 hPa | 0 mm | - | 0 W/m² | - |
| 1777681263 | 9.44° C | 59% | 1025.4 hPa | 0 mm | - | 0 W/m² | - |
| 1777678875 | 10° C | 57% | 1025.5 hPa | 0 mm | - | 0 W/m² | - |
| 1777674098 | 11.11° C | 52% | 1025.7 hPa | 0 mm | - | 0 W/m² | - |
| 1777669851 | 12.22° C | 51% | 1026 hPa | 0 mm | - | 0 W/m² | - |
| 1777666844 | 12.22° C | 54% | 1026.2 hPa | 0 mm | - | 0 W/m² | - |
| 1777662676 | 14.44° C | 46% | 1026.4 hPa | 0 mm | - | 0 W/m² | - |
| 1777662036 | 14.44° C | 47% | 1026.3 hPa | 0 mm | - | 0 W/m² | - |
| 1777658452 | 17.78° C | 37% | 1026.2 hPa | 0 mm | - | 10 W/m² | - |
| 1777654276 | 21.11° C | 31% | 1026.2 hPa | 0 mm | - | 33 W/m² | - |
| 1777651260 | 22.22° C | 35% | 1026.5 hPa | 0 mm | - | 145 W/m² | - |
| 1777645821 | 23.33° C | 33% | 1026.9 hPa | 0 mm | - | 351 W/m² | - |
| 1777644660 | 23.33° C | 33% | 1026.8 hPa | 0 mm | - | 387 W/m² | - |
| 1777644069 | 23.33° C | 32% | 1026.9 hPa | 0 mm | - | 409 W/m² | - |
* Rain latest hour (hover to see other rain measurements)
** Current wind speed in m/s (hover to see current wind gust speed)